Long Beach, CA

4:52 AM PDT on July 07, 2015 (GMT -0700)
Long Beach | | Change Station
CLOSE
Current Station
Airport
Location: Long Beach,
Elevation: 39 ft
Nearby Weather Stations

Elev 39 ft 33.81 °N, 118.15 °W | Updated 59 minutes ago

Overcast
Overcast
65 °F
Feels Like 65 °F
N
5
Wind Variable Wind from South

Today
High -- | Low -- °F
--% Chance of Precip.
Yesterday
High -- | Low -- °F
Precip. -- in
5:48 AM 8:06 PM
Waning Gibbous, 65% visible
Pressure 29.97 in
Visibility 10.0 miles
Clouds Overcast 1100 ft
Dew Point 61 °F
Humidity 87%
Rainfall 0.00 in
Snow Depth Not available.
UV 0 out of 12
Pollen 3.50 out of 12
Air Quality Not available.
Flu Activity Not available.
METAR KLGB 071053Z 19004KT 10SM OVC011 18/16 A2997 RMK AO2 SLP149 T01830161

More Conditions Fewer Conditions

Pressure 29.97 in
Visibility 10.0 miles
Clouds Overcast 1100 ft
Dew Point 61 °F
Humidity 87%
Rainfall 0.00 in
Snow Depth Not available.
UV 0 out of 12
Pollen 3.50 out of 12
Air Quality Not available.
Flu Activity Not available.
METAR KLGB 071053Z 19004KT 10SM OVC011 18/16 A2997 RMK AO2 SLP149 T01830161

More Conditions Fewer Conditions

10-Day Weather Forecast

×

Almanac

Astronomy

Jul. 07, 2015 Rise Set
Actual Time
Civil Twilight
Nautical Twilight
Astronomical Twilight
Moon
Length of Visible Light
Length of Day
Tomorrow will be .
, % of the Moon is Illuminated

Today's Extremes

State Highs State Lows

Community

WunderPhotos

Upload Photos

1,835,770 photos uploaded!

WunderBlogs® & News

Nearby

Air Quality

  Air Quality AQ Index Pollutant
Not available.

Snow Depth

Station Depth Elevation

Earthquake Activity

City Distance Mag. Time & Date
Minimum magnitude displayed is 2.5.

Coastal Water Temperatures

Place Temperature

Stations

Nearby Weather Stations

Station Location Temp. Windchill Dew Point Humidity Wind Precip. Elev Updated Type